createdAt,value
2018-02-18T00:01:33.276Z,31.02
2018-02-18T00:04:01.136Z,33.53
2018-02-18T00:06:29.035Z,34.97
2018-02-18T00:08:56.929Z,41.17
2018-02-18T00:11:24.862Z,42.58
2018-02-18T00:13:52.922Z,33.65
2018-02-18T00:16:20.872Z,29.30
2018-02-18T00:18:48.680Z,28.67
2018-02-18T00:21:16.598Z,29.30
2018-02-18T00:23:44.564Z,31.42
2018-02-18T00:26:12.442Z,28.23
2018-02-18T00:28:40.284Z,28.52
2018-02-18T00:31:09.003Z,26.85
2018-02-18T00:33:36.992Z,29.23
2018-02-18T00:36:04.968Z,27.10
2018-02-18T00:38:32.937Z,27.55
2018-02-18T00:41:00.887Z,26.83
2018-02-18T00:43:28.774Z,28.10
2018-02-18T00:45:56.723Z,27.95
2018-02-18T00:48:24.754Z,27.85
2018-02-18T00:50:52.718Z,29.67
2018-02-18T00:53:21.356Z,29.05
2018-02-18T00:55:49.320Z,29.87
2018-02-18T00:58:17.234Z,30.23
2018-02-18T01:00:45.863Z,29.15
2018-02-18T01:03:13.714Z,27.92
2018-02-18T01:05:41.534Z,28.60
2018-02-18T01:08:09.479Z,27.37
2018-02-18T01:10:37.327Z,28.30
2018-02-18T01:13:05.296Z,29.33
2018-02-18T01:15:33.279Z,28.52
2018-02-18T01:18:01.150Z,28.55
2018-02-18T01:20:29.110Z,29.08
2018-02-18T01:22:57.323Z,30.48
2018-02-18T01:25:25.871Z,28.85
2018-02-18T01:27:53.748Z,28.73
2018-02-18T01:30:21.571Z,27.00
2018-02-18T01:32:49.461Z,28.38
2018-02-18T01:35:18.161Z,26.40
2018-02-18T01:37:46.032Z,27.70
2018-02-18T01:40:13.906Z,29.55
2018-02-18T01:42:41.820Z,30.05
2018-02-18T01:45:09.714Z,29.33
2018-02-18T01:47:41.230Z,28.33
2018-02-18T01:50:18.054Z,27.48
2018-02-18T01:52:45.955Z,27.35
2018-02-18T01:55:14.612Z,29.12
2018-02-18T01:57:42.418Z,29.42
2018-02-18T02:00:10.374Z,30.58
2018-02-18T02:02:39.044Z,31.08
2018-02-18T02:05:06.924Z,28.60
2018-02-18T02:07:35.982Z,30.45
2018-02-18T02:10:04.318Z,29.35
2018-02-18T02:12:32.197Z,30.23
2018-02-18T02:15:00.943Z,27.52
2018-02-18T02:17:29.547Z,27.20
2018-02-18T02:19:57.445Z,28.08
2018-02-18T02:22:25.325Z,27.67
2018-02-18T02:24:53.364Z,28.23
2018-02-18T02:27:21.264Z,27.27
2018-02-18T02:29:49.275Z,29.65
2018-02-18T02:32:17.947Z,27.15
2018-02-18T02:34:46.579Z,28.17
2018-02-18T02:37:14.538Z,26.98
2018-02-18T02:39:42.355Z,26.20
2018-02-18T02:42:10.294Z,26.75
2018-02-18T02:44:38.980Z,26.45
2018-02-18T02:47:06.734Z,26.27
2018-02-18T02:49:35.419Z,26.40
2018-02-18T02:52:03.294Z,27.35
2018-02-18T02:54:31.216Z,26.42
2018-02-18T02:57:00.064Z,26.23
2018-02-18T02:59:28.024Z,26.23
2018-02-18T03:01:55.783Z,27.00
2018-02-18T03:04:23.810Z,28.48
2018-02-18T03:06:52.431Z,28.12
2018-02-18T03:09:20.275Z,28.60
2018-02-18T03:11:48.197Z,29.95
2018-02-18T03:14:16.081Z,29.83
2018-02-18T03:16:44.758Z,28.38
2018-02-18T03:19:13.456Z,27.48
2018-02-18T03:21:42.054Z,28.75
2018-02-18T03:24:09.998Z,29.80
2018-02-18T03:26:38.692Z,31.02
2018-02-18T03:29:07.318Z,32.35
2018-02-18T03:31:35.568Z,31.65
2018-02-18T03:34:03.790Z,33.20
2018-02-18T05:57:38.982Z,36.30
2018-02-18T06:00:24.587Z,37.13
2018-02-18T06:03:06.789Z,36.08
2018-02-18T06:05:42.836Z,34.35
2018-02-18T06:08:18.130Z,32.67
2018-02-18T06:10:52.577Z,33.97
2018-02-18T06:16:10.584Z,35.45
2018-02-18T06:18:43.762Z,31.42
2018-02-18T06:21:19.435Z,36.40
2018-02-18T06:24:21.721Z,37.13
2018-02-18T06:34:37.399Z,29.87
2018-02-18T06:37:17.543Z,30.95
2018-02-18T06:40:33.533Z,35.25
2018-02-18T06:44:33.805Z,37.00
2018-02-18T06:47:26.879Z,37.47
2018-02-18T06:50:11.995Z,34.05
2018-02-18T06:52:44.375Z,29.23
2018-02-18T06:55:17.199Z,30.50
2018-02-18T06:57:47.571Z,32.75
2018-02-18T07:00:30.923Z,36.63
2018-02-18T07:07:03.577Z,31.05
2018-02-18T07:09:36.271Z,35.80
2018-02-18T07:12:20.254Z,30.60
2018-02-18T07:14:55.358Z,37.00
2018-02-18T07:25:21.955Z,35.05
2018-02-18T07:28:06.188Z,30.77
2018-02-18T07:30:57.809Z,35.15
2018-02-18T07:33:30.389Z,34.35
2018-02-18T07:36:01.243Z,35.20
2018-02-18T07:41:45.677Z,28.40
2018-02-18T07:44:35.647Z,31.85
2018-02-18T07:50:31.025Z,31.27
2018-02-18T07:53:05.387Z,32.30
2018-02-18T07:55:41.310Z,32.15
2018-02-18T07:58:20.057Z,30.85
2018-02-18T08:01:29.882Z,32.83
2018-02-18T08:07:07.885Z,32.13
2018-02-18T08:09:49.296Z,31.17
2018-02-18T08:12:32.278Z,32.28
2018-02-18T08:15:12.382Z,31.73
2018-02-18T08:17:45.506Z,29.27
2018-02-18T08:20:19.080Z,32.38
2018-02-18T08:22:52.821Z,31.67
2018-02-18T08:25:28.316Z,31.08
2018-02-18T08:28:09.109Z,30.73
2018-02-18T08:30:50.978Z,29.75
2018-02-18T08:33:33.123Z,31.05
2018-02-18T08:43:38.468Z,27.87
2018-02-18T08:46:12.096Z,32.17
2018-02-18T08:48:57.494Z,31.98
2018-02-18T08:51:29.649Z,31.50
2018-02-18T08:54:02.929Z,29.30
2018-02-18T08:56:36.840Z,30.55
2018-02-18T08:59:10.840Z,30.45
2018-02-18T09:01:49.664Z,29.98
2018-02-18T09:04:25.831Z,30.20
2018-02-18T09:06:59.897Z,29.80
2018-02-18T09:18:57.931Z,27.42
2018-02-18T09:21:31.879Z,31.23
2018-02-18T09:24:08.279Z,30.25
2018-02-18T09:27:29.113Z,31.20
2018-02-18T09:30:07.824Z,29.27
2018-02-18T09:32:42.823Z,29.27
2018-02-18T09:35:32.128Z,31.95
2018-02-18T09:38:12.584Z,27.87
2018-02-18T09:51:12.202Z,28.67
2018-02-18T09:56:34.870Z,29.60
2018-02-18T10:02:20.943Z,28.65
2018-02-18T10:05:26.919Z,27.37
2018-02-18T10:21:20.039Z,28.17
2018-02-18T10:24:06.137Z,28.50
2018-02-18T10:31:52.378Z,29.73
2018-02-18T10:42:29.161Z,26.75
2018-02-18T10:49:01.619Z,26.35
2018-02-18T10:51:46.712Z,26.75
2018-02-18T11:29:58.056Z,23.98
2018-02-18T11:32:44.399Z,27.73
2018-02-18T11:35:52.989Z,28.50
2018-02-18T11:45:11.519Z,24.50
2018-02-18T12:26:29.718Z,15.60
2018-02-18T12:29:16.938Z,16.20
2018-02-18T12:35:26.176Z,9.33
2018-02-18T12:38:08.296Z,9.77
2018-02-18T12:47:03.015Z,9.17
2018-02-18T12:49:50.897Z,8.53
2018-02-18T12:52:39.613Z,8.00
2018-02-18T12:55:21.532Z,6.93
2018-02-18T12:58:00.985Z,6.20
2018-02-18T13:00:49.337Z,6.67
2018-02-18T13:07:32.967Z,6.50
2018-02-18T13:10:06.760Z,6.80
2018-02-18T13:13:00.476Z,7.13
2018-02-18T13:19:25.289Z,6.30
2018-02-18T13:22:19.986Z,6.17
2018-02-18T13:28:25.190Z,6.50
2018-02-18T13:31:24.991Z,6.47
2018-02-18T13:54:51.686Z,7.17
2018-02-18T13:57:38.918Z,8.30
2018-02-18T14:00:28.127Z,7.97
2018-02-18T14:08:29.024Z,7.27
2018-02-18T14:14:32.848Z,7.60
2018-02-18T14:21:25.976Z,6.47
2018-02-18T14:24:31.447Z,8.03
2018-02-18T14:33:23.345Z,6.30
2018-02-18T14:36:16.231Z,7.10
2018-02-18T14:39:13.504Z,7.07
2018-02-18T14:52:39.278Z,6.67
2018-02-18T14:59:02.460Z,7.03
2018-02-18T15:02:16.319Z,6.57
2018-02-18T15:09:16.061Z,5.17
2018-02-18T15:19:02.327Z,6.30
2018-02-18T15:31:19.718Z,6.00
2018-02-18T15:34:00.666Z,7.80
2018-02-18T15:36:40.192Z,7.23
2018-02-18T15:40:47.083Z,7.50
2018-02-18T15:43:26.923Z,7.23
2018-02-18T15:46:11.116Z,7.40
2018-02-18T15:49:24.024Z,7.30
2018-02-18T15:52:03.368Z,7.17
2018-02-18T15:54:58.516Z,6.53
2018-02-18T15:58:58.783Z,7.43
2018-02-18T16:02:05.556Z,7.23
2018-02-18T16:12:49.181Z,7.37
2018-02-18T16:15:50.401Z,7.57
2018-02-18T16:18:39.242Z,7.43
2018-02-18T16:21:51.764Z,7.90
2018-02-18T16:28:39.869Z,7.50
2018-02-18T16:31:25.820Z,7.93
2018-02-18T16:38:18.273Z,8.37
2018-02-18T16:41:07.440Z,9.23
2018-02-18T16:43:40.335Z,8.37
2018-02-18T16:46:11.757Z,9.57
2018-02-18T16:49:19.861Z,10.20
2018-02-18T16:52:01.961Z,9.80
2018-02-18T16:58:31.240Z,10.03
2018-02-18T17:01:36.079Z,9.70
2018-02-18T17:05:15.438Z,10.00
2018-02-18T17:11:33.734Z,10.53
2018-02-18T17:21:57.480Z,9.87
2018-02-18T17:25:03.807Z,10.63
2018-02-18T17:27:53.699Z,9.73
2018-02-18T17:30:41.980Z,8.80
2018-02-18T17:36:32.062Z,9.95
2018-02-18T17:39:32.723Z,8.90
2018-02-18T17:42:14.273Z,8.87
2018-02-18T17:44:58.004Z,8.70
2018-02-18T17:47:55.928Z,11.00
2018-02-18T17:53:32.254Z,30.03
2018-02-18T17:56:19.619Z,33.43
2018-02-18T17:59:06.973Z,21.57
2018-02-18T18:01:55.259Z,19.70
2018-02-18T18:05:13.614Z,20.53
2018-02-18T18:13:29.229Z,26.40
2018-02-18T18:31:31.762Z,25.23
2018-02-18T18:34:31.084Z,20.13
2018-02-18T18:40:23.496Z,26.53
2018-02-18T18:46:23.321Z,32.73
2018-02-18T18:52:32.509Z,34.30
2018-02-18T19:04:27.192Z,25.73
2018-02-18T19:07:08.854Z,26.50
2018-02-18T19:09:49.760Z,27.37
2018-02-18T19:17:13.751Z,25.35
2018-02-18T19:19:59.459Z,28.73
2018-02-18T19:22:37.381Z,34.40
2018-02-18T19:26:15.506Z,31.13
2018-02-18T19:32:12.830Z,31.65
2018-02-18T19:34:57.827Z,29.80
2018-02-18T19:40:43.044Z,28.40
2018-02-18T19:46:31.308Z,29.90
2018-02-18T19:49:41.216Z,30.02
2018-02-18T19:55:58.641Z,28.27
2018-02-18T20:01:47.142Z,28.62
2018-02-18T20:04:41.803Z,27.65
2018-02-18T20:07:19.230Z,31.52
2018-02-18T20:13:18.433Z,29.23
2018-02-18T20:22:05.586Z,36.35
2018-02-18T20:25:00.040Z,36.20
2018-02-18T20:31:07.371Z,36.40
2018-02-18T20:43:48.587Z,36.38
2018-02-18T20:46:32.122Z,37.47
2018-02-18T20:49:29.627Z,37.88
2018-02-18T20:52:08.984Z,38.22
2018-02-18T20:57:27.669Z,40.95
2018-02-18T21:00:04.596Z,38.55
2018-02-18T21:02:48.020Z,42.38
2018-02-18T21:05:20.402Z,42.20
2018-02-18T21:08:01.394Z,43.97
2018-02-18T21:14:07.403Z,43.75
2018-02-18T21:16:56.955Z,41.70
2018-02-18T21:23:39.697Z,43.08
2018-02-18T21:29:40.586Z,43.63
2018-02-18T21:32:11.320Z,41.05
2018-02-18T21:34:54.235Z,43.05
2018-02-18T21:41:12.558Z,41.20
2018-02-18T21:44:00.185Z,42.78
2018-02-18T21:46:47.389Z,41.42
2018-02-18T21:49:30.107Z,39.70
2018-02-18T21:52:39.111Z,37.97
2018-02-18T21:55:37.315Z,48.92
2018-02-18T22:01:35.995Z,40.42
2018-02-18T22:07:32.412Z,37.63
2018-02-18T22:13:02.874Z,42.03
2018-02-18T22:15:53.465Z,40.75
2018-02-18T22:18:40.242Z,40.38
2018-02-18T22:21:26.219Z,39.17
2018-02-18T22:24:20.865Z,43.58
2018-02-18T22:27:05.600Z,38.35
2018-02-18T22:30:01.116Z,33.30
2018-02-18T22:35:49.292Z,32.40
2018-02-18T22:38:35.669Z,33.63
2018-02-18T22:41:24.753Z,32.55
2018-02-18T22:44:39.209Z,31.85
2018-02-18T22:47:40.019Z,30.85
2018-02-18T22:53:44.512Z,29.15
2018-02-18T22:56:26.801Z,28.62
2018-02-18T22:59:16.513Z,28.90
2018-02-18T23:40:11.042Z,29.23
2018-02-18T23:42:54.661Z,29.73
2018-02-18T23:45:27.563Z,29.25
2018-02-18T23:48:06.669Z,29.63
2018-02-18T23:50:38.529Z,28.38
2018-02-18T23:53:13.687Z,28.85
2018-02-18T23:55:52.224Z,28.85
2018-02-18T23:58:30.112Z,28.87
